sensor_id;sensor_type;location;lat;lon;timestamp;P1;durP1;ratioP1;P2;durP2;ratioP2
12976;SDS011;6553;48.412;9.514;2023-04-03T00:01:36;1.30;;;1.20;;
12976;SDS011;6553;48.412;9.514;2023-04-03T00:04:04;1.48;;;1.38;;
12976;SDS011;6553;48.412;9.514;2023-04-03T00:06:31;1.23;;;1.20;;
12976;SDS011;6553;48.412;9.514;2023-04-03T00:08:57;1.45;;;1.35;;
12976;SDS011;6553;48.412;9.514;2023-04-03T00:11:23;1.40;;;1.30;;
12976;SDS011;6553;48.412;9.514;2023-04-03T00:13:50;1.48;;;1.38;;
12976;SDS011;6553;48.412;9.514;2023-04-03T00:16:16;1.48;;;1.38;;
12976;SDS011;6553;48.412;9.514;2023-04-03T00:18:42;1.38;;;1.27;;
12976;SDS011;6553;48.412;9.514;2023-04-03T00:21:09;1.90;;;1.30;;
12976;SDS011;6553;48.412;9.514;2023-04-03T00:23:38;1.30;;;1.20;;
12976;SDS011;6553;48.412;9.514;2023-04-03T00:26:03;1.20;;;1.20;;
12976;SDS011;6553;48.412;9.514;2023-04-03T00:28:29;1.48;;;1.38;;
12976;SDS011;6553;48.412;9.514;2023-04-03T00:30:55;1.42;;;1.30;;
12976;SDS011;6553;48.412;9.514;2023-04-03T00:33:20;1.58;;;1.40;;
12976;SDS011;6553;48.412;9.514;2023-04-03T00:35:47;1.60;;;1.50;;
12976;SDS011;6553;48.412;9.514;2023-04-03T00:38:14;1.75;;;1.65;;
12976;SDS011;6553;48.412;9.514;2023-04-03T00:40:44;1.40;;;1.30;;
12976;SDS011;6553;48.412;9.514;2023-04-03T00:43:15;1.30;;;1.20;;
12976;SDS011;6553;48.412;9.514;2023-04-03T00:45:51;1.13;;;1.13;;
12976;SDS011;6553;48.412;9.514;2023-04-03T00:48:29;1.30;;;1.20;;
12976;SDS011;6553;48.412;9.514;2023-04-03T00:51:00;1.10;;;1.05;;
12976;SDS011;6553;48.412;9.514;2023-04-03T00:53:30;1.40;;;1.30;;
12976;SDS011;6553;48.412;9.514;2023-04-03T00:56:01;1.58;;;1.48;;
12976;SDS011;6553;48.412;9.514;2023-04-03T00:58:33;1.40;;;1.30;;
12976;SDS011;6553;48.412;9.514;2023-04-03T01:01:16;1.60;;;1.50;;
12976;SDS011;6553;48.412;9.514;2023-04-03T01:03:48;1.60;;;1.50;;
12976;SDS011;6553;48.412;9.514;2023-04-03T01:06:16;1.40;;;1.30;;
12976;SDS011;6553;48.412;9.514;2023-04-03T01:08:48;1.40;;;1.23;;
12976;SDS011;6553;48.412;9.514;2023-04-03T01:11:15;2.28;;;1.42;;
12976;SDS011;6553;48.412;9.514;2023-04-03T01:13:42;1.60;;;1.50;;
12976;SDS011;6553;48.412;9.514;2023-04-03T01:16:08;1.23;;;1.13;;
12976;SDS011;6553;48.412;9.514;2023-04-03T01:18:36;1.50;;;1.30;;
12976;SDS011;6553;48.412;9.514;2023-04-03T01:27:00;1.48;;;1.38;;
12976;SDS011;6553;48.412;9.514;2023-04-03T01:29:29;1.40;;;1.23;;
12976;SDS011;6553;48.412;9.514;2023-04-03T01:31:56;1.40;;;1.30;;
12976;SDS011;6553;48.412;9.514;2023-04-03T01:34:26;1.30;;;1.20;;
12976;SDS011;6553;48.412;9.514;2023-04-03T01:36:53;1.38;;;1.30;;
12976;SDS011;6553;48.412;9.514;2023-04-03T01:39:20;1.40;;;1.30;;
12976;SDS011;6553;48.412;9.514;2023-04-03T01:41:47;1.45;;;1.20;;
12976;SDS011;6553;48.412;9.514;2023-04-03T01:44:24;1.25;;;1.15;;
12976;SDS011;6553;48.412;9.514;2023-04-03T01:46:50;1.50;;;1.40;;
12976;SDS011;6553;48.412;9.514;2023-04-03T01:49:15;1.63;;;1.50;;
12976;SDS011;6553;48.412;9.514;2023-04-03T01:51:41;1.65;;;1.23;;
12976;SDS011;6553;48.412;9.514;2023-04-03T01:54:07;1.40;;;1.30;;
12976;SDS011;6553;48.412;9.514;2023-04-03T01:56:33;1.35;;;1.25;;
12976;SDS011;6553;48.412;9.514;2023-04-03T01:58:59;1.33;;;1.23;;
12976;SDS011;6553;48.412;9.514;2023-04-03T02:01:24;1.70;;;1.60;;
12976;SDS011;6553;48.412;9.514;2023-04-03T02:03:50;1.33;;;1.23;;
12976;SDS011;6553;48.412;9.514;2023-04-03T02:06:16;1.40;;;1.30;;
12976;SDS011;6553;48.412;9.514;2023-04-03T02:08:42;1.40;;;1.30;;
12976;SDS011;6553;48.412;9.514;2023-04-03T02:11:08;1.65;;;1.55;;
12976;SDS011;6553;48.412;9.514;2023-04-03T02:13:33;1.35;;;1.30;;
12976;SDS011;6553;48.412;9.514;2023-04-03T02:16:05;1.65;;;1.52;;
12976;SDS011;6553;48.412;9.514;2023-04-03T02:18:32;1.60;;;1.50;;
12976;SDS011;6553;48.412;9.514;2023-04-03T02:20:58;1.35;;;1.25;;
12976;SDS011;6553;48.412;9.514;2023-04-03T02:23:25;1.38;;;1.30;;
12976;SDS011;6553;48.412;9.514;2023-04-03T02:25:51;1.30;;;1.30;;
12976;SDS011;6553;48.412;9.514;2023-04-03T02:28:16;1.30;;;1.25;;
12976;SDS011;6553;48.412;9.514;2023-04-03T02:30:42;1.65;;;1.55;;
12976;SDS011;6553;48.412;9.514;2023-04-03T02:33:09;1.50;;;1.40;;
12976;SDS011;6553;48.412;9.514;2023-04-03T02:35:36;1.40;;;1.30;;
12976;SDS011;6553;48.412;9.514;2023-04-03T02:38:02;1.17;;;1.08;;
12976;SDS011;6553;48.412;9.514;2023-04-03T02:40:27;1.50;;;1.40;;
12976;SDS011;6553;48.412;9.514;2023-04-03T02:42:53;1.70;;;1.60;;
12976;SDS011;6553;48.412;9.514;2023-04-03T02:45:21;1.70;;;1.60;;
12976;SDS011;6553;48.412;9.514;2023-04-03T02:47:47;1.70;;;1.60;;
12976;SDS011;6553;48.412;9.514;2023-04-03T02:50:12;1.52;;;1.42;;
12976;SDS011;6553;48.412;9.514;2023-04-03T02:52:38;2.22;;;1.40;;
12976;SDS011;6553;48.412;9.514;2023-04-03T02:55:04;1.30;;;1.30;;
12976;SDS011;6553;48.412;9.514;2023-04-03T02:57:31;1.50;;;1.40;;
12976;SDS011;6553;48.412;9.514;2023-04-03T02:59:57;1.45;;;1.35;;
12976;SDS011;6553;48.412;9.514;2023-04-03T03:02:23;1.50;;;1.40;;
12976;SDS011;6553;48.412;9.514;2023-04-03T03:04:49;1.50;;;1.40;;
12976;SDS011;6553;48.412;9.514;2023-04-03T03:07:14;1.58;;;1.40;;
12976;SDS011;6553;48.412;9.514;2023-04-03T03:09:40;1.30;;;1.30;;
12976;SDS011;6553;48.412;9.514;2023-04-03T03:12:06;1.50;;;1.40;;
12976;SDS011;6553;48.412;9.514;2023-04-03T03:14:32;1.25;;;1.25;;
12976;SDS011;6553;48.412;9.514;2023-04-03T03:16:57;1.52;;;1.42;;
12976;SDS011;6553;48.412;9.514;2023-04-03T03:19:23;1.60;;;1.50;;
12976;SDS011;6553;48.412;9.514;2023-04-03T03:21:51;1.52;;;1.42;;
12976;SDS011;6553;48.412;9.514;2023-04-03T03:24:17;1.35;;;1.27;;
12976;SDS011;6553;48.412;9.514;2023-04-03T03:26:42;1.50;;;1.40;;
12976;SDS011;6553;48.412;9.514;2023-04-03T03:29:08;1.50;;;1.40;;
12976;SDS011;6553;48.412;9.514;2023-04-03T03:31:35;1.58;;;1.40;;
12976;SDS011;6553;48.412;9.514;2023-04-03T03:34:01;1.38;;;1.27;;
12976;SDS011;6553;48.412;9.514;2023-04-03T03:36:27;1.38;;;1.27;;
12976;SDS011;6553;48.412;9.514;2023-04-03T03:38:52;1.30;;;1.20;;
12976;SDS011;6553;48.412;9.514;2023-04-03T03:41:19;1.63;;;1.52;;
12976;SDS011;6553;48.412;9.514;2023-04-03T03:43:44;1.52;;;1.42;;
12976;SDS011;6553;48.412;9.514;2023-04-03T03:46:12;1.38;;;1.27;;
12976;SDS011;6553;48.412;9.514;2023-04-03T03:48:38;1.60;;;1.50;;
12976;SDS011;6553;48.412;9.514;2023-04-03T03:51:04;1.40;;;1.30;;
12976;SDS011;6553;48.412;9.514;2023-04-03T03:53:34;1.40;;;1.30;;
12976;SDS011;6553;48.412;9.514;2023-04-03T03:56:04;1.52;;;1.42;;
12976;SDS011;6553;48.412;9.514;2023-04-03T03:58:31;1.35;;;1.30;;
12976;SDS011;6553;48.412;9.514;2023-04-03T04:01:04;1.50;;;1.40;;
12976;SDS011;6553;48.412;9.514;2023-04-03T04:03:33;1.20;;;1.15;;
12976;SDS011;6553;48.412;9.514;2023-04-03T04:06:00;1.65;;;1.55;;
12976;SDS011;6553;48.412;9.514;2023-04-03T04:08:26;1.13;;;1.13;;
12976;SDS011;6553;48.412;9.514;2023-04-03T04:10:52;1.25;;;1.15;;
12976;SDS011;6553;48.412;9.514;2023-04-03T04:13:18;1.50;;;1.40;;
12976;SDS011;6553;48.412;9.514;2023-04-03T04:15:44;1.13;;;1.13;;
12976;SDS011;6553;48.412;9.514;2023-04-03T04:18:11;1.40;;;1.30;;
12976;SDS011;6553;48.412;9.514;2023-04-03T04:20:39;1.33;;;1.23;;
12976;SDS011;6553;48.412;9.514;2023-04-03T04:23:05;1.60;;;1.50;;
12976;SDS011;6553;48.412;9.514;2023-04-03T04:25:31;1.20;;;1.15;;
12976;SDS011;6553;48.412;9.514;2023-04-03T04:27:57;1.50;;;1.40;;
12976;SDS011;6553;48.412;9.514;2023-04-03T04:30:23;1.60;;;1.50;;
12976;SDS011;6553;48.412;9.514;2023-04-03T04:32:50;1.60;;;1.50;;
12976;SDS011;6553;48.412;9.514;2023-04-03T04:35:16;1.42;;;1.33;;
12976;SDS011;6553;48.412;9.514;2023-04-03T04:37:45;1.45;;;1.35;;
12976;SDS011;6553;48.412;9.514;2023-04-03T04:40:11;1.42;;;1.23;;
12976;SDS011;6553;48.412;9.514;2023-04-03T04:42:37;1.25;;;1.25;;
12976;SDS011;6553;48.412;9.514;2023-04-03T04:45:03;1.35;;;1.25;;
12976;SDS011;6553;48.412;9.514;2023-04-03T04:47:29;1.27;;;1.20;;
12976;SDS011;6553;48.412;9.514;2023-04-03T04:49:55;1.60;;;1.50;;
12976;SDS011;6553;48.412;9.514;2023-04-03T04:52:21;1.58;;;1.48;;
12976;SDS011;6553;48.412;9.514;2023-04-03T04:54:47;1.23;;;1.02;;
12976;SDS011;6553;48.412;9.514;2023-04-03T04:57:12;1.33;;;1.23;;
12976;SDS011;6553;48.412;9.514;2023-04-03T04:59:38;1.10;;;1.10;;
12976;SDS011;6553;48.412;9.514;2023-04-03T05:02:06;1.40;;;1.30;;
12976;SDS011;6553;48.412;9.514;2023-04-03T05:04:32;1.27;;;1.15;;
12976;SDS011;6553;48.412;9.514;2023-04-03T05:07:04;1.33;;;1.23;;
12976;SDS011;6553;48.412;9.514;2023-04-03T05:09:33;1.67;;;1.58;;
12976;SDS011;6553;48.412;9.514;2023-04-03T05:12:00;1.05;;;1.02;;
12976;SDS011;6553;48.412;9.514;2023-04-03T05:14:29;1.20;;;1.10;;
12976;SDS011;6553;48.412;9.514;2023-04-03T05:17:00;1.20;;;1.20;;
12976;SDS011;6553;48.412;9.514;2023-04-03T05:19:29;1.20;;;1.20;;
12976;SDS011;6553;48.412;9.514;2023-04-03T05:21:55;1.17;;;1.17;;
12976;SDS011;6553;48.412;9.514;2023-04-03T05:24:21;1.20;;;1.10;;
12976;SDS011;6553;48.412;9.514;2023-04-03T05:26:47;1.42;;;1.33;;
12976;SDS011;6553;48.412;9.514;2023-04-03T05:29:14;1.50;;;1.40;;
12976;SDS011;6553;48.412;9.514;2023-04-03T05:31:40;1.20;;;1.10;;
12976;SDS011;6553;48.412;9.514;2023-04-03T05:34:08;1.33;;;1.23;;
12976;SDS011;6553;48.412;9.514;2023-04-03T05:36:36;1.20;;;1.10;;
12976;SDS011;6553;48.412;9.514;2023-04-03T05:39:05;1.27;;;1.17;;
12976;SDS011;6553;48.412;9.514;2023-04-03T05:41:33;1.27;;;1.20;;
12976;SDS011;6553;48.412;9.514;2023-04-03T05:43:59;1.02;;;1.02;;
12976;SDS011;6553;48.412;9.514;2023-04-03T05:46:25;1.30;;;1.20;;
12976;SDS011;6553;48.412;9.514;2023-04-03T05:48:54;0.93;;;0.93;;
12976;SDS011;6553;48.412;9.514;2023-04-03T05:51:24;1.50;;;1.40;;
12976;SDS011;6553;48.412;9.514;2023-04-03T05:54:13;1.55;;;1.20;;
12976;SDS011;6553;48.412;9.514;2023-04-03T05:56:51;1.30;;;1.20;;
12976;SDS011;6553;48.412;9.514;2023-04-03T05:59:18;1.15;;;1.05;;
12976;SDS011;6553;48.412;9.514;2023-04-03T06:01:46;1.38;;;1.27;;
12976;SDS011;6553;48.412;9.514;2023-04-03T06:04:12;1.90;;;1.35;;
12976;SDS011;6553;48.412;9.514;2023-04-03T06:06:46;1.30;;;1.23;;
12976;SDS011;6553;48.412;9.514;2023-04-03T06:09:16;1.10;;;1.10;;
12976;SDS011;6553;48.412;9.514;2023-04-03T06:11:45;1.42;;;1.33;;
12976;SDS011;6553;48.412;9.514;2023-04-03T06:14:11;1.65;;;1.30;;
12976;SDS011;6553;48.412;9.514;2023-04-03T06:16:38;1.48;;;1.23;;
12976;SDS011;6553;48.412;9.514;2023-04-03T06:19:07;1.50;;;1.40;;
12976;SDS011;6553;48.412;9.514;2023-04-03T06:21:37;1.55;;;1.00;;
12976;SDS011;6553;48.412;9.514;2023-04-03T06:24:04;1.30;;;1.00;;
12976;SDS011;6553;48.412;9.514;2023-04-03T06:26:31;1.00;;;1.00;;
12976;SDS011;6553;48.412;9.514;2023-04-03T06:28:59;1.20;;;1.10;;
12976;SDS011;6553;48.412;9.514;2023-04-03T06:31:25;1.10;;;1.10;;
12976;SDS011;6553;48.412;9.514;2023-04-03T06:33:51;1.23;;;1.13;;
12976;SDS011;6553;48.412;9.514;2023-04-03T06:36:18;1.00;;;1.00;;
12976;SDS011;6553;48.412;9.514;2023-04-03T06:38:46;1.30;;;1.20;;
12976;SDS011;6553;48.412;9.514;2023-04-03T06:41:12;1.00;;;1.00;;
12976;SDS011;6553;48.412;9.514;2023-04-03T06:43:38;1.13;;;1.05;;
12976;SDS011;6553;48.412;9.514;2023-04-03T06:46:04;1.65;;;1.20;;
12976;SDS011;6553;48.412;9.514;2023-04-03T06:48:30;1.20;;;1.20;;
12976;SDS011;6553;48.412;9.514;2023-04-03T06:50:56;1.23;;;0.98;;
12976;SDS011;6553;48.412;9.514;2023-04-03T06:53:22;1.20;;;1.10;;
12976;SDS011;6553;48.412;9.514;2023-04-03T06:55:48;1.27;;;1.17;;
12976;SDS011;6553;48.412;9.514;2023-04-03T06:58:14;1.15;;;1.05;;
12976;SDS011;6553;48.412;9.514;2023-04-03T07:00:42;1.40;;;1.30;;
12976;SDS011;6553;48.412;9.514;2023-04-03T07:03:08;1.33;;;1.23;;
12976;SDS011;6553;48.412;9.514;2023-04-03T07:05:33;1.35;;;1.25;;
12976;SDS011;6553;48.412;9.514;2023-04-03T07:07:59;1.00;;;0.88;;
12976;SDS011;6553;48.412;9.514;2023-04-03T07:10:25;1.27;;;1.15;;
12976;SDS011;6553;48.412;9.514;2023-04-03T07:12:51;1.30;;;1.20;;
12976;SDS011;6553;48.412;9.514;2023-04-03T07:15:17;1.42;;;1.10;;
12976;SDS011;6553;48.412;9.514;2023-04-03T07:17:43;1.33;;;1.20;;
12976;SDS011;6553;48.412;9.514;2023-04-03T07:20:09;1.15;;;1.05;;
12976;SDS011;6553;48.412;9.514;2023-04-03T07:22:36;1.65;;;1.23;;
12976;SDS011;6553;48.412;9.514;2023-04-03T07:25:02;1.20;;;1.13;;
12976;SDS011;6553;48.412;9.514;2023-04-03T07:27:29;1.30;;;1.13;;
12976;SDS011;6553;48.412;9.514;2023-04-03T07:29:55;0.88;;;0.88;;
12976;SDS011;6553;48.412;9.514;2023-04-03T07:32:21;1.00;;;1.00;;
12976;SDS011;6553;48.412;9.514;2023-04-03T07:34:47;1.20;;;1.10;;
12976;SDS011;6553;48.412;9.514;2023-04-03T07:37:12;0.85;;;0.85;;
12976;SDS011;6553;48.412;9.514;2023-04-03T07:39:38;1.17;;;1.10;;
12976;SDS011;6553;48.412;9.514;2023-04-03T07:42:04;1.30;;;1.20;;
12976;SDS011;6553;48.412;9.514;2023-04-03T07:44:30;1.20;;;1.10;;
12976;SDS011;6553;48.412;9.514;2023-04-03T07:46:57;1.30;;;1.20;;
12976;SDS011;6553;48.412;9.514;2023-04-03T07:49:23;1.30;;;1.10;;
12976;SDS011;6553;48.412;9.514;2023-04-03T07:51:49;1.08;;;0.98;;
12976;SDS011;6553;48.412;9.514;2023-04-03T07:54:16;1.40;;;1.30;;
12976;SDS011;6553;48.412;9.514;2023-04-03T07:56:42;1.30;;;1.20;;
12976;SDS011;6553;48.412;9.514;2023-04-03T07:59:09;1.15;;;1.10;;
12976;SDS011;6553;48.412;9.514;2023-04-03T08:01:35;1.33;;;1.23;;
12976;SDS011;6553;48.412;9.514;2023-04-03T08:04:01;0.98;;;0.90;;
12976;SDS011;6553;48.412;9.514;2023-04-03T08:06:27;1.42;;;1.10;;
12976;SDS011;6553;48.412;9.514;2023-04-03T08:08:54;2.05;;;1.20;;
12976;SDS011;6553;48.412;9.514;2023-04-03T08:11:20;1.10;;;1.00;;
12976;SDS011;6553;48.412;9.514;2023-04-03T08:13:48;1.40;;;1.30;;
12976;SDS011;6553;48.412;9.514;2023-04-03T08:16:16;1.20;;;1.20;;
12976;SDS011;6553;48.412;9.514;2023-04-03T08:18:45;2.00;;;1.35;;
12976;SDS011;6553;48.412;9.514;2023-04-03T08:21:11;1.27;;;1.17;;
12976;SDS011;6553;48.412;9.514;2023-04-03T08:23:38;1.42;;;1.08;;
12976;SDS011;6553;48.412;9.514;2023-04-03T08:26:07;1.30;;;1.20;;
12976;SDS011;6553;48.412;9.514;2023-04-03T08:28:38;1.40;;;1.17;;
12976;SDS011;6553;48.412;9.514;2023-04-03T08:31:06;2.47;;;1.20;;
12976;SDS011;6553;48.412;9.514;2023-04-03T08:33:37;1.48;;;1.38;;
12976;SDS011;6553;48.412;9.514;2023-04-03T08:36:04;2.15;;;1.10;;
12976;SDS011;6553;48.412;9.514;2023-04-03T08:38:33;1.13;;;1.02;;
12976;SDS011;6553;48.412;9.514;2023-04-03T08:47:02;1.23;;;1.13;;
12976;SDS011;6553;48.412;9.514;2023-04-03T08:49:41;1.35;;;1.17;;
12976;SDS011;6553;48.412;9.514;2023-04-03T08:52:15;1.40;;;1.30;;
12976;SDS011;6553;48.412;9.514;2023-04-03T08:54:55;1.30;;;1.20;;
12976;SDS011;6553;48.412;9.514;2023-04-03T09:00:06;1.27;;;1.08;;
12976;SDS011;6553;48.412;9.514;2023-04-03T09:02:49;1.50;;;1.35;;
12976;SDS011;6553;48.412;9.514;2023-04-03T09:05:19;1.17;;;1.08;;
12976;SDS011;6553;48.412;9.514;2023-04-03T09:08:04;1.50;;;1.20;;
12976;SDS011;6553;48.412;9.514;2023-04-03T09:10:42;1.55;;;1.23;;
12976;SDS011;6553;48.412;9.514;2023-04-03T09:13:30;1.25;;;1.10;;
12976;SDS011;6553;48.412;9.514;2023-04-03T09:16:39;1.20;;;1.10;;
12976;SDS011;6553;48.412;9.514;2023-04-03T09:21:58;1.40;;;1.30;;
12976;SDS011;6553;48.412;9.514;2023-04-03T09:24:37;1.20;;;1.20;;
12976;SDS011;6553;48.412;9.514;2023-04-03T09:27:06;1.30;;;1.20;;
12976;SDS011;6553;48.412;9.514;2023-04-03T09:29:40;1.10;;;1.10;;
12976;SDS011;6553;48.412;9.514;2023-04-03T09:32:30;1.20;;;1.10;;
12976;SDS011;6553;48.412;9.514;2023-04-03T09:35:03;1.02;;;0.93;;
12976;SDS011;6553;48.412;9.514;2023-04-03T09:37:43;3.42;;;1.42;;
12976;SDS011;6553;48.412;9.514;2023-04-03T09:40:27;1.48;;;1.38;;
12976;SDS011;6553;48.412;9.514;2023-04-03T09:43:00;1.23;;;1.13;;
12976;SDS011;6553;48.412;9.514;2023-04-03T09:45:41;0.98;;;0.98;;
12976;SDS011;6553;48.412;9.514;2023-04-03T09:48:15;1.60;;;1.10;;
12976;SDS011;6553;48.412;9.514;2023-04-03T09:56:05;1.00;;;1.00;;
12976;SDS011;6553;48.412;9.514;2023-04-03T10:04:23;1.95;;;1.60;;
12976;SDS011;6553;48.412;9.514;2023-04-03T10:06:53;1.40;;;1.30;;
12976;SDS011;6553;48.412;9.514;2023-04-03T10:14:34;1.50;;;1.40;;
12976;SDS011;6553;48.412;9.514;2023-04-03T10:20:42;1.50;;;1.30;;
12976;SDS011;6553;48.412;9.514;2023-04-03T10:23:22;1.88;;;1.15;;
12976;SDS011;6553;48.412;9.514;2023-04-03T10:31:45;1.55;;;1.20;;
12976;SDS011;6553;48.412;9.514;2023-04-03T10:37:05;1.30;;;1.20;;
12976;SDS011;6553;48.412;9.514;2023-04-03T10:43:02;1.02;;;1.02;;
12976;SDS011;6553;48.412;9.514;2023-04-03T10:46:00;1.52;;;1.33;;
12976;SDS011;6553;48.412;9.514;2023-04-03T10:51:47;1.17;;;1.10;;
12976;SDS011;6553;48.412;9.514;2023-04-03T10:54:26;1.58;;;1.30;;
12976;SDS011;6553;48.412;9.514;2023-04-03T10:57:04;1.48;;;1.38;;
12976;SDS011;6553;48.412;9.514;2023-04-03T10:59:47;1.60;;;1.50;;
12976;SDS011;6553;48.412;9.514;2023-04-03T11:02:33;1.40;;;1.30;;
12976;SDS011;6553;48.412;9.514;2023-04-03T11:08:01;1.95;;;1.20;;
12976;SDS011;6553;48.412;9.514;2023-04-03T11:10:53;1.40;;;1.30;;
12976;SDS011;6553;48.412;9.514;2023-04-03T11:13:46;1.45;;;1.20;;
12976;SDS011;6553;48.412;9.514;2023-04-03T11:16:29;1.27;;;1.20;;
12976;SDS011;6553;48.412;9.514;2023-04-03T11:24:51;1.30;;;1.20;;
12976;SDS011;6553;48.412;9.514;2023-04-03T11:27:56;2.28;;;1.38;;
12976;SDS011;6553;48.412;9.514;2023-04-03T11:33:28;1.30;;;1.20;;
12976;SDS011;6553;48.412;9.514;2023-04-03T11:36:49;2.30;;;1.33;;
12976;SDS011;6553;48.412;9.514;2023-04-03T11:39:33;1.80;;;1.10;;
12976;SDS011;6553;48.412;9.514;2023-04-03T11:43:04;1.45;;;1.15;;
12976;SDS011;6553;48.412;9.514;2023-04-03T11:47:51;2.35;;;1.10;;
12976;SDS011;6553;48.412;9.514;2023-04-03T11:50:47;1.40;;;1.30;;
12976;SDS011;6553;48.412;9.514;2023-04-03T11:58:18;2.88;;;1.50;;
12976;SDS011;6553;48.412;9.514;2023-04-03T12:00:54;1.77;;;1.30;;
12976;SDS011;6553;48.412;9.514;2023-04-03T12:19:00;2.72;;;1.20;;
12976;SDS011;6553;48.412;9.514;2023-04-03T12:38:13;4.05;;;1.45;;
12976;SDS011;6553;48.412;9.514;2023-04-03T12:44:45;1.60;;;1.50;;
12976;SDS011;6553;48.412;9.514;2023-04-03T12:47:02;2.00;;;1.40;;
12976;SDS011;6553;48.412;9.514;2023-04-03T12:49:46;4.45;;;1.35;;
12976;SDS011;6553;48.412;9.514;2023-04-03T12:52:19;1.75;;;1.40;;
12976;SDS011;6553;48.412;9.514;2023-04-03T12:54:58;2.63;;;1.40;;
12976;SDS011;6553;48.412;9.514;2023-04-03T12:57:29;1.20;;;1.10;;
12976;SDS011;6553;48.412;9.514;2023-04-03T12:59:57;2.80;;;1.30;;
12976;SDS011;6553;48.412;9.514;2023-04-03T13:04:57;1.63;;;1.50;;
12976;SDS011;6553;48.412;9.514;2023-04-03T13:07:35;1.88;;;1.27;;
12976;SDS011;6553;48.412;9.514;2023-04-03T13:12:55;3.08;;;1.55;;
12976;SDS011;6553;48.412;9.514;2023-04-03T13:15:24;4.03;;;1.10;;
12976;SDS011;6553;48.412;9.514;2023-04-03T13:18:05;1.38;;;1.25;;
12976;SDS011;6553;48.412;9.514;2023-04-03T13:20:50;1.38;;;1.23;;
12976;SDS011;6553;48.412;9.514;2023-04-03T13:23:17;1.65;;;1.10;;
12976;SDS011;6553;48.412;9.514;2023-04-03T13:25:46;2.45;;;1.65;;
12976;SDS011;6553;48.412;9.514;2023-04-03T13:28:15;1.33;;;1.20;;
12976;SDS011;6553;48.412;9.514;2023-04-03T13:31:01;2.60;;;1.30;;
12976;SDS011;6553;48.412;9.514;2023-04-03T13:33:45;1.40;;;1.30;;
12976;SDS011;6553;48.412;9.514;2023-04-03T13:36:36;1.58;;;1.42;;
12976;SDS011;6553;48.412;9.514;2023-04-03T13:41:51;2.10;;;1.50;;
12976;SDS011;6553;48.412;9.514;2023-04-03T13:47:15;1.58;;;1.48;;
12976;SDS011;6553;48.412;9.514;2023-04-03T13:50:00;1.45;;;1.20;;
12976;SDS011;6553;48.412;9.514;2023-04-03T13:52:42;2.40;;;1.50;;
12976;SDS011;6553;48.412;9.514;2023-04-03T13:55:20;1.38;;;1.27;;
12976;SDS011;6553;48.412;9.514;2023-04-03T13:57:51;1.48;;;1.30;;
12976;SDS011;6553;48.412;9.514;2023-04-03T14:00:34;2.38;;;1.40;;
12976;SDS011;6553;48.412;9.514;2023-04-03T14:03:23;1.65;;;1.40;;
12976;SDS011;6553;48.412;9.514;2023-04-03T14:06:15;1.67;;;1.33;;
12976;SDS011;6553;48.412;9.514;2023-04-03T14:08:41;1.52;;;1.30;;
12976;SDS011;6553;48.412;9.514;2023-04-03T14:11:14;1.58;;;1.20;;
12976;SDS011;6553;48.412;9.514;2023-04-03T14:13:46;1.73;;;1.35;;
12976;SDS011;6553;48.412;9.514;2023-04-03T14:16:24;1.30;;;1.20;;
12976;SDS011;6553;48.412;9.514;2023-04-03T14:18:54;1.67;;;1.58;;
12976;SDS011;6553;48.412;9.514;2023-04-03T14:21:20;1.48;;;1.20;;
12976;SDS011;6553;48.412;9.514;2023-04-03T14:23:47;1.13;;;1.02;;
12976;SDS011;6553;48.412;9.514;2023-04-03T14:26:14;6.55;;;1.70;;
12976;SDS011;6553;48.412;9.514;2023-04-03T14:28:47;4.22;;;1.45;;
12976;SDS011;6553;48.412;9.514;2023-04-03T14:31:17;7.97;;;1.73;;
12976;SDS011;6553;48.412;9.514;2023-04-03T14:33:44;5.55;;;1.50;;
12976;SDS011;6553;48.412;9.514;2023-04-03T14:36:14;4.80;;;1.60;;
12976;SDS011;6553;48.412;9.514;2023-04-03T14:38:44;2.83;;;1.52;;
12976;SDS011;6553;48.412;9.514;2023-04-03T14:41:11;5.75;;;1.77;;
12976;SDS011;6553;48.412;9.514;2023-04-03T14:43:39;3.47;;;1.40;;
12976;SDS011;6553;48.412;9.514;2023-04-03T14:46:10;4.85;;;1.65;;
12976;SDS011;6553;48.412;9.514;2023-04-03T14:48:42;5.35;;;1.45;;
12976;SDS011;6553;48.412;9.514;2023-04-03T14:51:11;4.00;;;1.30;;
12976;SDS011;6553;48.412;9.514;2023-04-03T14:53:39;4.43;;;1.40;;
12976;SDS011;6553;48.412;9.514;2023-04-03T14:56:11;4.65;;;1.80;;
12976;SDS011;6553;48.412;9.514;2023-04-03T14:58:47;2.75;;;1.45;;
12976;SDS011;6553;48.412;9.514;2023-04-03T15:01:16;2.30;;;1.40;;
12976;SDS011;6553;48.412;9.514;2023-04-03T15:03:42;1.65;;;1.27;;
12976;SDS011;6553;48.412;9.514;2023-04-03T15:06:09;3.75;;;1.40;;
12976;SDS011;6553;48.412;9.514;2023-04-03T15:08:38;3.17;;;1.60;;
12976;SDS011;6553;48.412;9.514;2023-04-03T15:11:08;2.95;;;1.38;;
12976;SDS011;6553;48.412;9.514;2023-04-03T15:13:35;2.60;;;1.35;;
12976;SDS011;6553;48.412;9.514;2023-04-03T15:16:02;3.25;;;1.40;;
12976;SDS011;6553;48.412;9.514;2023-04-03T15:18:31;1.13;;;1.00;;
12976;SDS011;6553;48.412;9.514;2023-04-03T15:21:03;2.25;;;1.10;;
12976;SDS011;6553;48.412;9.514;2023-04-03T15:23:29;2.78;;;1.30;;
12976;SDS011;6553;48.412;9.514;2023-04-03T15:25:55;3.55;;;1.48;;
12976;SDS011;6553;48.412;9.514;2023-04-03T15:28:32;2.65;;;1.40;;
12976;SDS011;6553;48.412;9.514;2023-04-03T15:31:02;3.47;;;1.30;;
12976;SDS011;6553;48.412;9.514;2023-04-03T15:33:29;2.60;;;1.35;;
12976;SDS011;6553;48.412;9.514;2023-04-03T15:35:57;3.63;;;1.40;;
12976;SDS011;6553;48.412;9.514;2023-04-03T15:38:23;3.25;;;1.10;;
12976;SDS011;6553;48.412;9.514;2023-04-03T15:40:48;1.63;;;1.10;;
12976;SDS011;6553;48.412;9.514;2023-04-03T15:43:14;1.33;;;1.23;;
12976;SDS011;6553;48.412;9.514;2023-04-03T15:45:40;2.17;;;1.25;;
12976;SDS011;6553;48.412;9.514;2023-04-03T15:48:08;1.35;;;1.25;;
12976;SDS011;6553;48.412;9.514;2023-04-03T15:50:34;1.50;;;1.40;;
12976;SDS011;6553;48.412;9.514;2023-04-03T15:53:01;1.55;;;1.20;;
12976;SDS011;6553;48.412;9.514;2023-04-03T15:55:28;3.00;;;1.20;;
12976;SDS011;6553;48.412;9.514;2023-04-03T15:57:57;1.40;;;1.30;;
12976;SDS011;6553;48.412;9.514;2023-04-03T16:00:24;1.75;;;1.40;;
12976;SDS011;6553;48.412;9.514;2023-04-03T16:02:52;1.65;;;1.40;;
12976;SDS011;6553;48.412;9.514;2023-04-03T16:05:23;1.50;;;1.40;;
12976;SDS011;6553;48.412;9.514;2023-04-03T16:07:50;1.55;;;1.23;;
12976;SDS011;6553;48.412;9.514;2023-04-03T16:10:17;1.83;;;1.38;;
12976;SDS011;6553;48.412;9.514;2023-04-03T16:12:43;1.70;;;1.23;;
12976;SDS011;6553;48.412;9.514;2023-04-03T16:15:10;1.67;;;1.10;;
12976;SDS011;6553;48.412;9.514;2023-04-03T16:17:37;1.58;;;1.48;;
12976;SDS011;6553;48.412;9.514;2023-04-03T16:20:06;1.63;;;1.23;;
12976;SDS011;6553;48.412;9.514;2023-04-03T16:22:34;1.20;;;1.10;;
12976;SDS011;6553;48.412;9.514;2023-04-03T16:25:01;2.25;;;1.35;;
12976;SDS011;6553;48.412;9.514;2023-04-03T16:27:28;1.38;;;1.20;;
12976;SDS011;6553;48.412;9.514;2023-04-03T16:29:56;1.98;;;1.33;;
12976;SDS011;6553;48.412;9.514;2023-04-03T16:32:22;1.80;;;1.30;;
12976;SDS011;6553;48.412;9.514;2023-04-03T16:34:52;1.48;;;1.10;;
12976;SDS011;6553;48.412;9.514;2023-04-03T16:37:18;1.35;;;1.25;;
12976;SDS011;6553;48.412;9.514;2023-04-03T16:39:44;1.23;;;1.10;;
12976;SDS011;6553;48.412;9.514;2023-04-03T16:42:10;1.00;;;1.00;;
12976;SDS011;6553;48.412;9.514;2023-04-03T16:44:36;1.38;;;1.13;;
12976;SDS011;6553;48.412;9.514;2023-04-03T16:47:02;1.27;;;1.17;;
12976;SDS011;6553;48.412;9.514;2023-04-03T16:49:28;1.70;;;1.17;;
12976;SDS011;6553;48.412;9.514;2023-04-03T16:51:58;2.15;;;1.40;;
12976;SDS011;6553;48.412;9.514;2023-04-03T16:54:25;1.55;;;1.27;;
12976;SDS011;6553;48.412;9.514;2023-04-03T16:56:51;1.40;;;1.27;;
12976;SDS011;6553;48.412;9.514;2023-04-03T16:59:17;1.75;;;1.50;;
12976;SDS011;6553;48.412;9.514;2023-04-03T17:01:43;1.30;;;1.20;;
12976;SDS011;6553;48.412;9.514;2023-04-03T17:04:09;2.00;;;1.30;;
12976;SDS011;6553;48.412;9.514;2023-04-03T17:06:35;1.40;;;1.30;;
12976;SDS011;6553;48.412;9.514;2023-04-03T17:09:01;1.08;;;1.02;;
12976;SDS011;6553;48.412;9.514;2023-04-03T17:11:28;0.95;;;0.90;;
12976;SDS011;6553;48.412;9.514;2023-04-03T17:13:54;1.63;;;1.30;;
12976;SDS011;6553;48.412;9.514;2023-04-03T17:16:20;1.20;;;1.10;;